Time;durP1;ratioP1;P1;durP2;ratioP2;P2;SDS_P1;SDS_P2;PMS_P1;PMS_P2;Temp;Humidity;BMP_temperature;BMP_pressure;BME280_temperature;BME280_humidity;BME280_pressure;Samples;Min_cycle;Max_cycle;Signal;HPM_P1;HPM_P2
2022/04/02 00:00:18;;;;;;;47.92;26.63;;;1.50;99.90;;;;;;5085817;28;20036;-58
2022/04/02 00:02:45;;;;;;;40.20;26.20;;;1.50;99.90;;;;;;5093530;28;20097;-53
2022/04/02 00:05:11;;;;;;;43.90;26.00;;;1.50;99.90;;;;;;5086060;28;20024;-57
2022/04/02 00:07:37;;;;;;;45.35;26.92;;;1.50;99.90;;;;;;5081170;28;20035;-57
2022/04/02 00:10:05;;;;;;;41.95;25.45;;;1.50;99.90;;;;;;5084824;28;20035;-56
2022/04/02 00:12:31;;;;;;;41.45;25.00;;;1.50;99.90;;;;;;5085584;28;20035;-62
2022/04/02 00:14:57;;;;;;;42.83;25.08;;;1.40;99.90;;;;;;5086370;28;20028;-62
2022/04/02 00:17:22;;;;;;;42.78;24.83;;;1.40;99.90;;;;;;5089005;28;20031;-63
2022/04/02 00:19:48;;;;;;;43.60;25.27;;;1.40;99.90;;;;;;5086819;28;20038;-62
2022/04/02 00:22:14;;;;;;;42.90;24.35;;;1.40;99.90;;;;;;5087544;28;20482;-61
2022/04/02 00:24:40;;;;;;;40.35;25.60;;;1.40;99.90;;;;;;5084291;28;20032;-61
2022/04/02 00:27:06;;;;;;;41.90;24.88;;;1.40;99.90;;;;;;5084452;28;20077;-62
2022/04/02 00:29:34;;;;;;;42.90;25.10;;;1.40;99.90;;;;;;5081688;28;20024;-63
2022/04/02 00:31:59;;;;;;;44.55;25.52;;;1.40;99.90;;;;;;5085245;28;20024;-63
2022/04/02 00:34:25;;;;;;;51.47;24.77;;;1.40;99.90;;;;;;5084507;28;20024;-62
2022/04/02 00:36:50;;;;;;;42.90;25.15;;;1.40;99.90;;;;;;5089190;28;20032;-60
2022/04/02 00:39:16;;;;;;;43.85;25.88;;;1.40;99.90;;;;;;5085158;28;20112;-62
2022/04/02 00:41:42;;;;;;;42.70;25.05;;;1.40;99.90;;;;;;5085616;28;20139;-62
2022/04/02 00:44:12;;;;;;;42.60;25.55;;;1.40;99.90;;;;;;5093255;28;20547;-62
2022/04/02 00:46:42;;;;;;;46.08;25.63;;;1.40;99.90;;;;;;5089555;28;20685;-62
2022/04/02 00:49:09;;;;;;;37.55;24.40;;;1.40;99.90;;;;;;5084832;28;20028;-62
2022/04/02 00:51:41;;;;;;;44.58;25.48;;;1.40;99.90;;;;;;5087592;28;20059;-62
2022/04/02 00:54:08;;;;;;;44.40;23.90;;;1.40;99.90;;;;;;5088657;28;20077;-63
2022/04/02 00:56:35;;;;;;;41.90;24.25;;;1.40;99.90;;;;;;5090105;28;20044;-62
2022/04/02 00:59:01;;;;;;;39.65;24.08;;;1.40;99.90;;;;;;5091908;28;20025;-62
2022/04/02 01:01:27;;;;;;;40.22;23.63;;;1.40;99.90;;;;;;5087849;28;20367;-59
2022/04/02 01:03:52;;;;;;;46.65;24.23;;;1.40;99.90;;;;;;5090600;28;20103;-61
2022/04/02 01:06:18;;;;;;;42.55;23.42;;;1.40;99.90;;;;;;5085444;28;20054;-62
2022/04/02 01:08:44;;;;;;;38.95;22.30;;;1.40;99.90;;;;;;5091030;28;20076;-62
2022/04/02 01:11:10;;;;;;;42.70;24.75;;;1.40;99.90;;;;;;5090476;28;20032;-61
2022/04/02 01:13:35;;;;;;;43.10;22.90;;;1.40;99.90;;;;;;5092226;28;20035;-59
2022/04/02 01:16:01;;;;;;;48.67;24.95;;;1.40;99.90;;;;;;5088133;28;20470;-62
2022/04/02 01:18:28;;;;;;;47.53;24.98;;;1.40;99.90;;;;;;5087180;28;20027;-61
2022/04/02 01:20:53;;;;;;;47.83;26.30;;;1.40;99.90;;;;;;5090816;28;20032;-60
2022/04/02 01:23:19;;;;;;;43.08;23.67;;;1.40;99.90;;;;;;5092310;28;20031;-61
2022/04/02 01:25:45;;;;;;;44.03;24.75;;;1.30;99.90;;;;;;5091790;28;20024;-60
2022/04/02 01:28:11;;;;;;;41.08;24.42;;;1.30;99.90;;;;;;5092779;28;20039;-61
2022/04/02 01:30:36;;;;;;;48.28;25.40;;;1.30;99.90;;;;;;5092312;28;20028;-57
2022/04/02 01:33:02;;;;;;;46.40;24.85;;;1.30;99.90;;;;;;5085567;28;20035;-60
2022/04/02 01:35:28;;;;;;;48.00;25.90;;;1.30;99.90;;;;;;5091750;28;20101;-62
2022/04/02 01:37:53;;;;;;;42.88;25.63;;;1.30;99.90;;;;;;5084969;28;20020;-61
2022/04/02 01:40:20;;;;;;;41.50;24.02;;;1.30;99.90;;;;;;5085805;28;20538;-59
2022/04/02 01:42:46;;;;;;;44.80;25.13;;;1.30;99.90;;;;;;5090399;28;20107;-60
2022/04/02 01:45:13;;;;;;;53.97;26.90;;;1.30;99.90;;;;;;5091885;28;20032;-59
2022/04/02 01:47:38;;;;;;;46.28;25.45;;;1.30;99.90;;;;;;5082500;28;20486;-61
2022/04/02 01:50:06;;;;;;;45.88;24.42;;;1.30;99.90;;;;;;5088247;28;20116;-61
2022/04/02 01:52:31;;;;;;;46.28;26.55;;;1.30;99.90;;;;;;5090692;28;20464;-60
2022/04/02 01:54:57;;;;;;;41.28;24.40;;;1.30;99.90;;;;;;5091290;28;20032;-61
2022/04/02 01:57:23;;;;;;;44.25;24.55;;;1.30;99.90;;;;;;5086969;28;20035;-60
2022/04/02 01:59:50;;;;;;;40.78;24.70;;;1.30;99.90;;;;;;5088704;28;20035;-59
2022/04/02 02:02:16;;;;;;;40.47;23.42;;;1.30;99.90;;;;;;5085465;28;20016;-60
2022/04/02 02:04:42;;;;;;;40.20;22.95;;;1.30;99.90;;;;;;5091146;28;20035;-59
2022/04/02 02:07:07;;;;;;;39.17;23.35;;;1.30;99.90;;;;;;5091384;28;20033;-60
2022/04/02 02:09:33;;;;;;;40.28;21.65;;;1.30;99.90;;;;;;5089477;28;20086;-62
2022/04/02 02:12:00;;;;;;;43.20;23.23;;;1.30;99.90;;;;;;5089422;28;20432;-60
2022/04/02 02:14:26;;;;;;;45.50;24.20;;;1.30;99.90;;;;;;5088003;28;20016;-60
2022/04/02 02:16:51;;;;;;;37.67;21.90;;;1.30;99.90;;;;;;5089109;28;20077;-60
2022/04/02 02:19:17;;;;;;;39.85;21.60;;;1.30;99.90;;;;;;5085957;28;20386;-59
2022/04/02 02:21:43;;;;;;;37.25;22.02;;;1.30;99.90;;;;;;5090807;28;20032;-59
2022/04/02 02:24:08;;;;;;;41.78;22.95;;;1.30;99.90;;;;;;5088921;28;20046;-61
2022/04/02 02:26:34;;;;;;;44.08;23.70;;;1.30;99.90;;;;;;5091069;28;20567;-59
2022/04/02 02:29:01;;;;;;;39.17;22.38;;;1.30;99.90;;;;;;5086252;28;20065;-59
2022/04/02 02:31:26;;;;;;;38.55;22.60;;;1.30;99.90;;;;;;5081967;28;20536;-60
2022/04/02 02:36:36;;;;;;;46.95;24.13;;;1.20;99.90;;;;;;5083507;28;20134;-62
2022/04/02 02:39:02;;;;;;;47.63;26.33;;;1.30;99.90;;;;;;5089729;28;20110;-60
2022/04/02 02:41:28;;;;;;;49.30;24.13;;;1.30;99.90;;;;;;5087578;28;20047;-60
2022/04/02 02:43:53;;;;;;;45.80;24.70;;;1.20;99.90;;;;;;5090481;28;20020;-61
2022/04/02 02:46:19;;;;;;;53.15;24.38;;;1.20;99.90;;;;;;5083137;28;20059;-61
2022/04/02 02:48:45;;;;;;;45.22;23.02;;;1.20;99.90;;;;;;5090109;28;20058;-61
2022/04/02 02:51:11;;;;;;;42.20;22.88;;;1.20;99.90;;;;;;5084175;28;20036;-61
2022/04/02 02:53:37;;;;;;;37.70;21.65;;;1.20;99.90;;;;;;5081555;28;20085;-62
2022/04/02 02:56:02;;;;;;;45.97;23.10;;;1.20;99.90;;;;;;5088135;28;20042;-60
2022/04/02 02:58:28;;;;;;;45.25;22.02;;;1.20;99.90;;;;;;5084821;28;20073;-61
2022/04/02 03:00:54;;;;;;;45.75;22.63;;;1.20;99.90;;;;;;5084172;28;20035;-59
2022/04/02 03:03:20;;;;;;;48.20;22.63;;;1.20;99.90;;;;;;5090193;28;20051;-61
2022/04/02 03:05:46;;;;;;;46.03;22.67;;;1.20;99.90;;;;;;5089356;28;20024;-62
2022/04/02 03:08:12;;;;;;;37.85;20.30;;;1.20;99.90;;;;;;5082901;28;20115;-62
2022/04/02 03:10:38;;;;;;;37.53;20.20;;;1.20;99.90;;;;;;5088777;28;20103;-59
2022/04/02 03:13:06;;;;;;;36.40;19.70;;;1.20;99.90;;;;;;5084706;28;20039;-60
2022/04/02 03:15:32;;;;;;;41.42;19.35;;;1.20;99.90;;;;;;5082686;28;20475;-61
2022/04/02 03:18:06;;;;;;;31.65;18.13;;;1.20;99.90;;;;;;5087278;28;20622;-59
2022/04/02 03:20:32;;;;;;;35.92;16.67;;;1.20;99.90;;;;;;5085533;28;20448;-61
2022/04/02 03:22:58;;;;;;;34.47;17.00;;;1.20;99.90;;;;;;5086250;28;20047;-61
2022/04/02 03:25:23;;;;;;;32.30;15.13;;;1.20;99.90;;;;;;5087940;28;20517;-61
2022/04/02 03:27:50;;;;;;;38.30;16.75;;;1.20;99.90;;;;;;5088469;28;20028;-60
2022/04/02 03:30:21;;;;;;;32.63;15.27;;;1.20;99.90;;;;;;5080030;28;20028;-61
2022/04/02 03:32:48;;;;;;;26.23;14.55;;;1.20;99.90;;;;;;5084141;28;20026;-60
2022/04/02 03:35:15;;;;;;;30.38;14.07;;;1.20;99.90;;;;;;5086856;28;20070;-61
2022/04/02 03:37:42;;;;;;;31.48;14.23;;;1.20;99.90;;;;;;5084260;28;20140;-61
2022/04/02 03:40:16;;;;;;;27.45;13.00;;;1.20;99.90;;;;;;5090030;28;20032;-61
2022/04/02 03:42:42;;;;;;;;;;;1.20;99.90;;;;;;5079464;28;20078;-63
2022/04/02 03:45:09;;;;;;;27.10;14.77;;;1.20;99.90;;;;;;5086883;28;19904;-65
2022/04/02 03:47:35;;;;;;;27.98;14.25;;;1.20;99.90;;;;;;5079010;28;20036;-60
2022/04/02 03:50:01;;;;;;;28.25;14.18;;;1.20;99.90;;;;;;5088814;28;20068;-61
2022/04/02 03:52:27;;;;;;;30.02;14.65;;;1.20;99.90;;;;;;5082229;28;20072;-61
2022/04/02 03:54:53;;;;;;;28.25;13.63;;;1.20;99.90;;;;;;5088655;28;20036;-61
2022/04/02 03:57:19;;;;;;;24.70;13.27;;;1.20;99.90;;;;;;5084125;28;20028;-61
2022/04/02 03:59:46;;;;;;;25.63;12.73;;;1.20;99.90;;;;;;5087666;28;20036;-61
2022/04/02 04:02:12;;;;;;;23.42;13.02;;;1.20;99.90;;;;;;5083843;28;20025;-61
2022/04/02 04:04:38;;;;;;;21.00;12.23;;;1.20;99.90;;;;;;5085052;28;20480;-61
2022/04/02 04:07:05;;;;;;;24.63;13.55;;;1.30;99.90;;;;;;5088656;28;20028;-60
2022/04/02 04:09:30;;;;;;;22.38;12.50;;;1.30;99.90;;;;;;5087566;28;20024;-60
2022/04/02 04:11:56;;;;;;;26.17;11.13;;;1.30;99.90;;;;;;5088874;28;20038;-61
2022/04/02 04:14:24;;;;;;;19.70;10.35;;;1.30;99.90;;;;;;5080704;28;20043;-62
2022/04/02 04:16:50;;;;;;;21.55;10.45;;;1.30;99.90;;;;;;5091125;28;20505;-61
2022/04/02 04:19:16;;;;;;;15.13;9.15;;;1.30;99.90;;;;;;5088326;28;20059;-59
2022/04/02 04:21:43;;;;;;;17.40;9.52;;;1.30;99.90;;;;;;5092886;28;20012;-61
2022/04/02 04:24:09;;;;;;;19.67;8.90;;;1.30;99.90;;;;;;5089032;28;20094;-62
2022/04/02 04:26:35;;;;;;;14.90;8.90;;;1.40;99.90;;;;;;5088501;28;20061;-62
2022/04/02 04:29:02;;;;;;;22.83;9.05;;;1.40;99.90;;;;;;5089896;28;20077;-62
2022/04/02 04:31:27;;;;;;;25.15;9.10;;;1.40;99.90;;;;;;5090851;28;20093;-61
2022/04/02 04:33:53;;;;;;;18.45;8.50;;;1.40;99.90;;;;;;5090684;28;20036;-60
2022/04/02 04:36:19;;;;;;;15.57;7.88;;;1.40;99.90;;;;;;5085123;28;20028;-62
2022/04/02 04:38:46;;;;;;;18.15;7.78;;;1.40;99.90;;;;;;5087230;28;20449;-62
2022/04/02 04:41:13;;;;;;;13.38;7.78;;;1.40;99.90;;;;;;5090690;28;20094;-62
2022/04/02 04:43:41;;;;;;;13.15;7.05;;;1.40;99.90;;;;;;5091979;28;20039;-62
2022/04/02 04:46:07;;;;;;;13.82;7.25;;;1.40;99.90;;;;;;5088730;28;20035;-62
2022/04/02 04:48:35;;;;;;;12.43;6.90;;;1.40;99.90;;;;;;5087880;28;20070;-62
2022/04/02 04:51:01;;;;;;;11.05;6.78;;;1.40;99.90;;;;;;5090881;28;20020;-62
2022/04/02 04:53:27;;;;;;;12.88;7.60;;;1.40;99.90;;;;;;5090938;28;20046;-62
2022/04/02 04:55:53;;;;;;;12.95;6.68;;;1.50;99.90;;;;;;5090632;28;20032;-61
2022/04/02 04:58:19;;;;;;;11.05;5.72;;;1.50;99.90;;;;;;5086545;28;20017;-62
2022/04/02 05:00:45;;;;;;;15.65;6.50;;;1.50;99.90;;;;;;5082660;28;20028;-61
2022/04/02 05:03:10;;;;;;;11.20;5.90;;;1.50;99.90;;;;;;5090922;28;20042;-63
2022/04/02 05:05:37;;;;;;;10.15;5.85;;;1.50;99.90;;;;;;5088558;28;20544;-62
2022/04/02 05:08:03;;;;;;;9.43;5.43;;;1.50;99.90;;;;;;5091218;28;20697;-62
2022/04/02 05:10:29;;;;;;;11.90;4.97;;;1.50;99.90;;;;;;5092223;28;20394;-62
2022/04/02 05:12:55;;;;;;;14.35;5.25;;;1.50;99.90;;;;;;5090884;28;20077;-62
2022/04/02 05:15:20;;;;;;;12.40;5.47;;;1.50;99.90;;;;;;5082459;28;20042;-62
2022/04/02 05:17:46;;;;;;;9.38;5.28;;;1.50;99.90;;;;;;5088824;28;20082;-62
2022/04/02 05:20:14;;;;;;;10.75;5.53;;;1.50;99.90;;;;;;5087251;28;20505;-62
2022/04/02 05:22:43;;;;;;;12.02;4.70;;;1.50;99.90;;;;;;5085356;28;20363;-61
2022/04/02 05:25:10;;;;;;;19.35;5.88;;;1.50;99.90;;;;;;5085856;28;20028;-62
2022/04/02 05:27:37;;;;;;;11.90;5.30;;;1.50;99.90;;;;;;5089523;28;20076;-61
2022/04/02 05:30:03;;;;;;;10.52;4.50;;;1.50;99.90;;;;;;5087780;28;20064;-61
2022/04/02 05:32:30;;;;;;;9.70;5.10;;;1.50;99.90;;;;;;5082588;28;20035;-61
2022/04/02 05:34:56;;;;;;;11.95;4.88;;;1.50;99.90;;;;;;5089874;28;20482;-60
2022/04/02 05:37:23;;;;;;;9.68;5.13;;;1.50;99.90;;;;;;5084986;28;20031;-62
2022/04/02 05:39:48;;;;;;;15.70;5.90;;;1.50;99.90;;;;;;5085717;28;20050;-60
2022/04/02 05:42:14;;;;;;;12.90;5.15;;;1.60;99.90;;;;;;5085934;28;20079;-62
2022/04/02 05:44:40;;;;;;;10.80;4.07;;;1.60;99.90;;;;;;5087890;28;20024;-62
2022/04/02 05:47:05;;;;;;;13.68;4.30;;;1.60;99.90;;;;;;5087838;28;20036;-59
2022/04/02 05:49:31;;;;;;;8.48;4.45;;;1.60;99.90;;;;;;5088179;28;20024;-62
2022/04/02 05:54:23;;;;;;;8.57;4.97;;;1.60;99.90;;;;;;5119573;22;20082;-63
2022/04/02 05:56:48;;;;;;;10.93;4.85;;;1.60;99.90;;;;;;5107754;28;20028;-64
2022/04/02 05:59:14;;;;;;;16.73;4.85;;;1.60;99.90;;;;;;5110484;28;20034;-63
2022/04/02 06:01:40;;;;;;;11.18;3.97;;;1.60;99.90;;;;;;5106868;28;20038;-60
2022/04/02 06:04:05;;;;;;;10.80;4.55;;;1.50;99.90;;;;;;5088402;28;20101;-64
2022/04/02 06:06:31;;;;;;;11.15;4.50;;;1.50;99.90;;;;;;5091236;28;20098;-63
2022/04/02 06:08:57;;;;;;;7.70;4.05;;;1.60;99.90;;;;;;5089759;28;20119;-61
2022/04/02 06:11:23;;;;;;;9.98;5.38;;;1.60;99.90;;;;;;5089018;28;20089;-63
2022/04/02 06:13:49;;;;;;;6.53;4.22;;;1.50;99.90;;;;;;5084854;28;20035;-63
2022/04/02 06:16:16;;;;;;;9.90;4.90;;;1.50;99.90;;;;;;5090651;28;20032;-62
2022/04/02 06:18:43;;;;;;;7.75;4.80;;;1.50;99.90;;;;;;5090743;28;20123;-62
2022/04/02 06:21:08;;;;;;;7.65;4.60;;;1.50;99.90;;;;;;5091264;28;20168;-65
2022/04/02 06:23:34;;;;;;;8.90;3.92;;;1.40;99.90;;;;;;5085153;28;20024;-63
2022/04/02 06:25:59;;;;;;;10.18;3.85;;;1.50;99.90;;;;;;5090776;28;20030;-63
2022/04/02 06:28:25;;;;;;;8.98;3.90;;;1.50;99.90;;;;;;5090246;28;20032;-61
2022/04/02 06:30:51;;;;;;;11.27;4.22;;;1.50;99.90;;;;;;5090122;28;20461;-61
2022/04/02 06:33:16;;;;;;;8.38;4.13;;;1.60;99.90;;;;;;5090406;28;20032;-61
2022/04/02 06:35:42;;;;;;;8.27;4.32;;;1.60;99.90;;;;;;5088169;28;20477;-62
2022/04/02 06:38:07;;;;;;;8.68;4.32;;;1.60;99.90;;;;;;5087969;28;20032;-60
2022/04/02 06:40:33;;;;;;;10.98;4.55;;;1.60;99.90;;;;;;5090013;28;20040;-62
2022/04/02 06:42:59;;;;;;;8.35;4.30;;;1.60;99.90;;;;;;5090322;28;20035;-61
2022/04/02 06:45:25;;;;;;;8.95;4.68;;;1.60;99.90;;;;;;5089955;28;20024;-61
2022/04/02 06:47:51;;;;;;;7.05;4.30;;;1.70;99.90;;;;;;5087267;28;20509;-61
2022/04/02 06:50:17;;;;;;;7.85;5.10;;;1.70;99.90;;;;;;5090119;28;20027;-62
2022/04/02 06:52:44;;;;;;;8.35;4.68;;;1.70;99.90;;;;;;5089724;28;20428;-63
2022/04/02 06:55:12;;;;;;;11.13;4.88;;;1.80;99.90;;;;;;5089579;28;20057;-62
2022/04/02 06:57:48;;;;;;;9.25;4.72;;;1.80;99.90;;;;;;5083433;28;20028;-61
2022/04/02 07:00:15;;;;;;;8.88;4.38;;;1.80;99.90;;;;;;5086543;28;20024;-62
2022/04/02 07:02:40;;;;;;;7.18;4.50;;;1.90;99.90;;;;;;5082855;28;20065;-63
2022/04/02 07:05:06;;;;;;;7.25;4.25;;;1.90;99.90;;;;;;5088778;28;20135;-61
2022/04/02 07:07:32;;;;;;;9.85;5.13;;;2.00;99.90;;;;;;5086790;28;20120;-62
2022/04/02 07:09:58;;;;;;;12.60;4.63;;;2.00;99.90;;;;;;5089531;28;20482;-61
2022/04/02 07:12:24;;;;;;;12.93;4.82;;;2.00;99.90;;;;;;5089208;28;20474;-62
2022/04/02 07:14:49;;;;;;;10.18;5.10;;;2.10;99.90;;;;;;5089716;28;20023;-63
2022/04/02 07:17:15;;;;;;;10.75;5.38;;;2.20;99.90;;;;;;5089107;28;20031;-63
2022/04/02 07:19:41;;;;;;;14.10;5.50;;;2.10;99.90;;;;;;5089784;28;20067;-62
2022/04/02 07:22:11;;;;;;;10.18;4.28;;;2.20;99.90;;;;;;5087883;28;20054;-61
2022/04/02 07:24:40;;;;;;;11.65;4.65;;;2.20;99.90;;;;;;5089073;28;20557;-62
2022/04/02 07:27:07;;;;;;;10.13;4.68;;;2.20;99.90;;;;;;5089998;28;20036;-62
2022/04/02 07:29:33;;;;;;;15.75;5.22;;;2.20;99.90;;;;;;5089384;28;20031;-62
2022/04/02 07:31:59;;;;;;;10.45;4.55;;;2.20;99.90;;;;;;5089731;28;20028;-62
2022/04/02 07:34:25;;;;;;;13.07;4.55;;;2.20;99.90;;;;;;5089332;28;20390;-62
2022/04/02 07:37:04;;;;;;;7.60;4.72;;;2.20;99.90;;;;;;5087616;28;20030;-62
2022/04/02 07:39:34;;;;;;;9.77;4.90;;;2.20;99.90;;;;;;5089433;28;20490;-62
2022/04/02 07:42:13;;;;;;;6.90;3.58;;;2.20;99.90;;;;;;5089412;28;20024;-62
2022/04/02 07:45:01;;;;;;;11.77;4.57;;;2.20;99.90;;;;;;5089266;28;20071;-62
2022/04/02 07:47:33;;;;;;;11.18;3.63;;;2.20;99.90;;;;;;5085881;28;20093;-62
2022/04/02 07:50:03;;;;;;;9.35;4.22;;;2.20;99.90;;;;;;5089445;28;20478;-61
2022/04/02 07:52:29;;;;;;;8.00;3.95;;;2.20;99.90;;;;;;5088695;28;20054;-62
2022/04/02 07:55:00;;;;;;;7.78;4.30;;;2.30;99.90;;;;;;5089258;28;20032;-63
2022/04/02 07:57:38;;;;;;;8.90;4.00;;;2.40;99.90;;;;;;5087836;28;20102;-62
2022/04/02 08:00:05;;;;;;;5.78;4.10;;;2.40;99.90;;;;;;5086936;28;20031;-59
2022/04/02 08:02:38;;;;;;;10.75;4.07;;;2.50;99.90;;;;;;5088434;28;20097;-56
2022/04/02 08:05:10;;;;;;;8.32;3.88;;;2.50;99.90;;;;;;5088803;28;20514;-57
2022/04/02 08:07:39;;;;;;;9.10;4.43;;;2.60;99.90;;;;;;5089008;28;20409;-58
2022/04/02 08:10:11;;;;;;;7.15;4.15;;;2.70;99.90;;;;;;5089367;28;20087;-56
2022/04/02 08:12:38;;;;;;;7.47;4.10;;;2.70;99.90;;;;;;5085226;28;20054;-59
2022/04/02 08:15:06;;;;;;;7.75;4.60;;;2.70;99.90;;;;;;5088991;28;20024;-57
2022/04/02 08:17:32;;;;;;;7.97;4.00;;;2.70;99.90;;;;;;5083294;28;20024;-58
2022/04/02 08:19:59;;;;;;;8.30;4.10;;;2.80;99.90;;;;;;5089192;28;20028;-60
2022/04/02 08:22:25;;;;;;;5.43;3.53;;;2.70;99.90;;;;;;5088605;28;20342;-58
2022/04/02 08:24:51;;;;;;;8.45;4.53;;;2.80;99.90;;;;;;5088663;28;20028;-58
2022/04/02 08:27:16;;;;;;;7.65;3.70;;;2.70;99.90;;;;;;5086919;28;20495;-59
2022/04/02 08:30:11;;;;;;;13.85;4.10;;;2.70;99.90;;;;;;5085501;28;20032;-58
2022/04/02 08:33:13;;;;;;;6.97;4.32;;;2.70;99.90;;;;;;5084019;28;20023;-58
2022/04/02 08:35:46;;;;;;;6.03;3.90;;;2.70;99.90;;;;;;5086573;28;20028;-58
2022/04/02 08:38:40;;;;;;;8.50;5.15;;;2.80;99.90;;;;;;5082683;28;20024;-59
2022/04/02 08:41:32;;;;;;;10.68;4.70;;;2.80;99.90;;;;;;5084120;28;20098;-59
2022/04/02 08:44:44;;;;;;;5.25;3.50;;;2.70;99.90;;;;;;5081167;28;20031;-58
2022/04/02 08:48:04;;;;;;;10.07;3.97;;;2.60;99.90;;;;;;5086250;28;20444;-59
2022/04/02 08:50:36;;;;;;;9.82;4.30;;;2.60;99.90;;;;;;5079312;28;20036;-58
2022/04/02 08:53:22;;;;;;;10.50;4.10;;;2.60;99.90;;;;;;5088941;28;20391;-58
2022/04/02 08:56:05;;;;;;;10.82;5.00;;;2.70;99.90;;;;;;5084245;28;20039;-59
2022/04/02 08:58:56;;;;;;;9.20;4.60;;;2.80;99.90;;;;;;5087579;28;20031;-60
2022/04/02 09:01:27;;;;;;;6.65;3.83;;;2.70;99.90;;;;;;5088174;28;20084;-59
2022/04/02 09:04:05;;;;;;;10.10;4.00;;;2.70;99.90;;;;;;5090755;28;20439;-59
2022/04/02 09:07:20;;;;;;;7.18;4.40;;;2.70;99.90;;;;;;5085383;28;20051;-59
2022/04/02 09:09:55;;;;;;;;;;;2.80;99.90;;;;;;5086542;28;20036;-58
2022/04/02 09:12:31;;;;;;;10.82;4.40;;;2.80;99.90;;;;;;5087891;28;19918;-59
2022/04/02 09:15:06;;;;;;;8.45;5.13;;;2.80;99.90;;;;;;5091148;28;20935;-57
2022/04/02 09:18:00;;;;;;;6.32;3.90;;;2.80;99.90;;;;;;5089943;28;20024;-58
2022/04/02 09:20:46;;;;;;;7.50;2.90;;;2.90;99.90;;;;;;5085963;28;20020;-58
2022/04/02 09:23:45;;;;;;;9.90;4.10;;;2.90;99.90;;;;;;5087210;28;20064;-59
2022/04/02 09:26:38;;;;;;;8.43;3.85;;;2.80;99.90;;;;;;5069433;27;20040;-59
2022/04/02 09:29:23;;;;;;;6.05;4.05;;;2.80;99.90;;;;;;5084597;28;20081;-58
2022/04/02 09:32:19;;;;;;;8.02;4.20;;;2.80;99.90;;;;;;5086576;28;20067;-58
2022/04/02 09:34:50;;;;;;;8.70;4.40;;;2.90;99.90;;;;;;5085743;28;20488;-59
2022/04/02 09:37:27;;;;;;;7.13;4.38;;;2.90;99.90;;;;;;5089822;28;20103;-60
2022/04/02 09:40:05;;;;;;;8.63;5.22;;;3.00;99.90;;;;;;5091802;28;20117;-60
2022/04/02 09:42:44;;;;;;;16.05;4.70;;;3.00;99.90;;;;;;5089857;28;20047;-59
2022/04/02 09:45:15;;;;;;;11.02;4.90;;;3.10;99.90;;;;;;5088062;28;20359;-59
2022/04/02 09:48:16;;;;;;;12.32;4.72;;;3.10;99.90;;;;;;5087161;28;20041;-59
2022/04/02 09:50:44;;;;;;;7.82;4.40;;;3.20;99.90;;;;;;5086644;28;20024;-59
2022/04/02 09:53:24;;;;;;;6.75;4.70;;;3.10;99.90;;;;;;5087280;28;20039;-57
2022/04/02 09:56:01;;;;;;;8.80;4.20;;;3.10;99.90;;;;;;5086200;28;20032;-56
2022/04/02 09:58:48;;;;;;;10.27;4.80;;;3.10;99.90;;;;;;5092421;28;20077;-56
2022/04/02 10:01:26;;;;;;;9.05;4.00;;;3.10;99.90;;;;;;5088496;28;20043;-57
2022/04/02 10:04:00;;;;;;;7.10;4.35;;;3.20;99.90;;;;;;5089749;28;20028;-55
2022/04/02 10:06:38;;;;;;;8.23;3.17;;;3.30;99.90;;;;;;5088877;28;20028;-56
2022/04/02 10:09:09;;;;;;;8.27;4.20;;;3.30;99.90;;;;;;5089761;28;20379;-56
2022/04/02 10:11:39;;;;;;;6.43;4.07;;;3.40;99.90;;;;;;5089480;28;20526;-57
2022/04/02 10:14:06;;;;;;;7.60;4.47;;;3.50;99.90;;;;;;5088986;28;20052;-57
2022/04/02 10:16:32;;;;;;;9.35;4.80;;;3.60;99.90;;;;;;5090961;28;20056;-59
2022/04/02 10:19:00;;;;;;;9.35;4.82;;;3.70;99.90;;;;;;5091052;28;20528;-57
2022/04/02 10:21:30;;;;;;;7.57;4.13;;;3.80;99.90;;;;;;5092105;28;20032;-60
2022/04/02 10:24:24;;;;;;;10.63;4.00;;;3.70;99.90;;;;;;5087506;28;20028;-59
2022/04/02 10:26:53;;;;;;;11.00;4.93;;;3.80;99.90;;;;;;5092709;28;20024;-58
2022/04/02 10:29:57;;;;;;;13.73;4.35;;;3.90;99.90;;;;;;5091983;28;20028;-57
2022/04/02 10:32:50;;;;;;;6.05;3.72;;;4.00;99.90;;;;;;5059292;28;20063;-57
2022/04/02 10:35:16;;;;;;;6.88;3.95;;;4.00;99.90;;;;;;5088241;28;20040;-59
2022/04/02 10:37:54;;;;;;;9.85;3.83;;;4.00;99.90;;;;;;5086627;28;20031;-59
2022/04/02 10:40:22;;;;;;;7.90;4.00;;;4.00;99.90;;;;;;5089462;28;20024;-58
2022/04/02 10:42:53;;;;;;;6.95;4.22;;;4.10;99.90;;;;;;5090216;28;20106;-59
2022/04/02 10:45:20;;;;;;;7.82;3.40;;;4.20;99.90;;;;;;5091493;28;20036;-58
2022/04/02 10:48:08;;;;;;;7.18;3.85;;;4.10;99.90;;;;;;5087748;28;20050;-57
2022/04/02 10:50:35;;;;;;;7.70;3.25;;;4.10;99.90;;;;;;5083730;28;20031;-57
2022/04/02 10:53:02;;;;;;;7.32;4.03;;;4.40;99.90;;;;;;5089663;28;20039;-56
2022/04/02 10:55:28;;;;;;;6.35;3.63;;;4.60;99.90;;;;;;5087165;28;20028;-56
2022/04/02 10:57:56;;;;;;;7.93;3.75;;;4.80;99.90;;;;;;5086046;28;20032;-58
2022/04/02 11:00:26;;;;;;;5.97;3.60;;;4.80;99.90;;;;;;5089156;28;20087;-59
2022/04/02 11:03:03;;;;;;;4.53;3.10;;;4.80;99.90;;;;;;5088336;28;20558;-59
2022/04/02 11:05:37;;;;;;;7.55;3.92;;;4.90;99.90;;;;;;5079867;28;20028;-59
2022/04/02 11:08:10;;;;;;;;;;;4.90;99.90;;;;;;5090258;28;20060;-59
2022/04/02 11:10:36;;;;;;;5.50;3.50;;;4.80;99.90;;;;;;5091002;28;19985;-60
2022/04/02 11:13:04;;;;;;;8.75;3.83;;;4.80;99.90;;;;;;5087584;28;20023;-60
2022/04/02 11:15:36;;;;;;;7.03;4.15;;;5.00;99.90;;;;;;5090279;28;20032;-60
2022/04/02 11:18:02;;;;;;;6.68;3.67;;;5.10;99.90;;;;;;5085966;28;20111;-60
2022/04/02 11:20:32;;;;;;;5.13;3.15;;;5.30;99.90;;;;;;5090405;28;20063;-60
2022/04/02 11:23:22;;;;;;;10.10;3.65;;;5.50;99.90;;;;;;5085828;28;20081;-61
2022/04/02 11:25:54;;;;;;;7.10;4.05;;;5.70;99.90;;;;;;5084548;28;20039;-58
2022/04/02 11:28:21;;;;;;;5.18;3.30;;;6.00;99.90;;;;;;5090647;28;20431;-60
2022/04/02 11:30:59;;;;;;;8.57;3.63;;;5.90;99.90;;;;;;5087714;28;20047;-60
2022/04/02 11:33:25;;;;;;;11.23;5.05;;;5.80;99.90;;;;;;5086141;28;20520;-59
2022/04/02 11:35:55;;;;;;;7.78;3.85;;;6.10;99.90;;;;;;5090659;28;20036;-60
2022/04/02 11:38:25;;;;;;;9.57;4.50;;;6.30;99.90;;;;;;5082726;28;20095;-61
2022/04/02 11:41:09;;;;;;;10.52;4.60;;;6.50;99.90;;;;;;5090255;28;20023;-61
2022/04/02 11:43:40;;;;;;;15.02;7.65;;;6.50;99.90;;;;;;5089893;28;20032;-59
2022/04/02 11:46:07;;;;;;;10.48;4.47;;;6.40;99.90;;;;;;5091207;28;20039;-60
2022/04/02 11:48:36;;;;;;;8.82;4.25;;;6.00;99.90;;;;;;5090975;28;20036;-59
2022/04/02 11:51:13;;;;;;;8.32;4.03;;;5.80;99.90;;;;;;5091573;28;20021;-59
2022/04/02 11:53:40;;;;;;;7.85;3.83;;;5.70;99.90;;;;;;5104726;22;20054;-66
2022/04/02 11:56:26;;;;;;;7.28;3.72;;;5.70;99.90;;;;;;5087741;28;20127;-66
2022/04/02 11:58:54;;;;;;;9.18;4.30;;;5.80;99.90;;;;;;5087567;28;20413;-66
2022/04/02 12:01:21;;;;;;;7.20;4.53;;;6.00;99.90;;;;;;5089385;28;20043;-66
2022/04/02 12:04:14;;;;;;;7.13;4.07;;;6.10;99.90;;;;;;5070386;28;20043;-66
2022/04/02 12:06:41;;;;;;;9.15;4.28;;;6.50;99.90;;;;;;5080668;28;20031;-66
2022/04/02 12:09:22;;;;;;;6.03;3.72;;;6.80;99.90;;;;;;5089130;28;20027;-65
2022/04/02 12:12:03;;;;;;;7.50;4.05;;;6.90;99.90;;;;;;5090097;28;20032;-65
2022/04/02 12:14:32;;;;;;;4.75;3.42;;;7.00;99.90;;;;;;5088691;28;20032;-65
2022/04/02 12:17:09;;;;;;;11.80;3.97;;;7.10;99.90;;;;;;5087323;28;20031;-65
2022/04/02 12:19:42;;;;;;;9.27;4.03;;;7.10;99.90;;;;;;5069562;28;20028;-65
2022/04/02 12:22:28;;;;;;;5.20;3.70;;;7.50;99.90;;;;;;5089329;28;20016;-66
2022/04/02 12:24:58;;;;;;;8.90;3.78;;;7.90;99.90;;;;;;5089460;28;20073;-65
2022/04/02 12:27:29;;;;;;;5.18;3.33;;;7.80;99.90;;;;;;5087395;28;20502;-65
2022/04/02 12:29:57;;;;;;;5.13;3.42;;;7.60;99.90;;;;;;5084034;28;20039;-65
2022/04/02 12:32:44;;;;;;;7.88;4.47;;;7.30;99.90;;;;;;5087756;28;20032;-66
2022/04/02 12:35:24;;;;;;;11.00;4.38;;;7.00;99.90;;;;;;5089741;28;20056;-66
2022/04/02 12:37:57;;;;;;;10.25;4.70;;;6.60;99.90;;;;;;5091521;28;20024;-66
2022/04/02 12:40:30;;;;;;;10.25;4.78;;;6.00;99.90;;;;;;5088054;28;20074;-66
2022/04/02 12:43:01;;;;;;;12.15;5.03;;;5.70;99.90;;;;;;5083394;28;20028;-66
2022/04/02 12:45:28;;;;;;;9.98;4.85;;;5.40;99.90;;;;;;5086855;28;20082;-65
2022/04/02 12:48:01;;;;;;;7.50;4.90;;;5.30;99.90;;;;;;5091018;28;20397;-66
2022/04/02 12:50:30;;;;;;;11.68;5.30;;;5.40;99.90;;;;;;5088349;28;20028;-65
2022/04/02 12:52:55;;;;;;;8.77;4.70;;;5.40;99.90;;;;;;5092536;28;20024;-66
2022/04/02 12:55:26;;;;;;;14.13;5.25;;;5.30;99.90;;;;;;5092137;28;20032;-65
2022/04/02 12:58:10;;;;;;;8.70;4.63;;;5.30;99.90;;;;;;5086271;28;20037;-66
2022/04/02 13:00:42;;;;;;;8.27;4.80;;;5.30;99.90;;;;;;5092119;28;20486;-65
2022/04/02 13:03:09;;;;;;;7.20;5.00;;;5.30;99.90;;;;;;5092476;28;20098;-66
2022/04/02 13:05:48;;;;;;;9.52;5.93;;;5.30;99.90;;;;;;5092244;28;20031;-65
2022/04/02 13:08:17;;;;;;;10.23;5.00;;;5.30;99.90;;;;;;5091191;28;20043;-65